createdAt,value
2022-10-02T00:01:51.861Z,13.02
2022-10-02T00:04:25.859Z,12.85
2022-10-02T00:06:59.920Z,12.72
2022-10-02T00:09:34.958Z,12.55
2022-10-02T00:12:08.375Z,12.46
2022-10-02T00:14:42.058Z,12.40
2022-10-02T00:17:17.439Z,12.41
2022-10-02T00:19:46.825Z,12.45
2022-10-02T00:22:31.665Z,12.47
2022-10-02T00:25:14.284Z,12.49
2022-10-02T00:28:02.359Z,12.53
2022-10-02T00:30:44.143Z,12.45
2022-10-02T00:33:29.355Z,12.49
2022-10-02T00:36:14.665Z,12.44
2022-10-02T00:38:53.533Z,12.46
2022-10-02T00:41:52.637Z,12.65
2022-10-02T00:44:45.442Z,12.69
2022-10-02T00:47:24.563Z,12.56
2022-10-02T00:50:15.336Z,12.61
2022-10-02T00:52:56.412Z,12.59
2022-10-02T00:55:49.301Z,12.59
2022-10-02T00:58:36.726Z,12.61
2022-10-02T01:01:17.774Z,12.55
2022-10-02T01:03:54.039Z,12.41
2022-10-02T01:06:29.993Z,12.49
2022-10-02T01:09:06.170Z,12.45
2022-10-02T01:11:36.831Z,12.38
2022-10-02T01:14:06.421Z,12.27
2022-10-02T01:16:37.840Z,12.38
2022-10-02T01:19:30.752Z,12.39
2022-10-02T01:22:12.054Z,12.32
2022-10-02T01:24:55.274Z,12.28
2022-10-02T01:27:26.118Z,12.22
2022-10-02T01:30:01.820Z,12.27
2022-10-02T01:32:33.854Z,12.19
2022-10-02T01:35:03.555Z,12.27
2022-10-02T01:37:37.485Z,12.28
2022-10-02T01:40:12.241Z,12.26
2022-10-02T01:42:42.215Z,12.14
2022-10-02T01:45:16.642Z,12.17
2022-10-02T01:47:53.201Z,12.10
2022-10-02T01:50:34.579Z,12.01
2022-10-02T01:53:10.969Z,11.95
2022-10-02T01:58:33.897Z,11.78
2022-10-02T02:01:13.237Z,11.68
2022-10-02T02:03:52.422Z,11.56
2022-10-02T02:06:28.785Z,11.48
2022-10-02T02:09:08.962Z,11.34
2022-10-02T02:11:55.854Z,11.19
2022-10-02T02:14:27.553Z,11.23
2022-10-02T02:17:09.395Z,11.08
2022-10-02T02:19:45.832Z,11.02
2022-10-02T02:22:21.214Z,10.88
2022-10-02T02:24:59.159Z,10.74
2022-10-02T02:27:36.633Z,10.69
2022-10-02T02:30:11.482Z,10.66
2022-10-02T02:32:47.394Z,10.64
2022-10-02T02:35:20.056Z,10.57
2022-10-02T02:37:53.707Z,10.41
2022-10-02T02:40:28.134Z,10.40
2022-10-02T02:43:12.131Z,10.34
2022-10-02T02:45:53.620Z,10.30
2022-10-02T02:48:26.483Z,10.32
2022-10-02T02:50:59.899Z,10.45
2022-10-02T02:53:35.500Z,10.63
2022-10-02T02:56:14.090Z,10.70
2022-10-02T02:58:50.700Z,10.79
2022-10-02T03:01:20.998Z,10.82
2022-10-02T03:03:55.611Z,10.90
2022-10-02T03:06:37.393Z,10.96
2022-10-02T03:09:20.467Z,11.08
2022-10-02T03:11:56.438Z,11.11
2022-10-02T03:14:45.342Z,11.21
2022-10-02T03:17:23.832Z,11.15
2022-10-02T03:20:00.737Z,11.14
2022-10-02T03:22:41.846Z,11.06
2022-10-02T03:25:16.848Z,11.17
2022-10-02T03:27:53.340Z,11.15
2022-10-02T03:30:25.064Z,11.22
2022-10-02T03:33:00.549Z,11.11
2022-10-02T03:35:35.570Z,11.15
2022-10-02T03:38:08.620Z,11.14
2022-10-02T03:40:38.432Z,11.22
2022-10-02T03:43:07.806Z,11.11
2022-10-02T03:45:51.434Z,11.13
2022-10-02T03:48:21.176Z,11.12
2022-10-02T03:50:55.847Z,11.11
2022-10-02T03:53:31.112Z,10.97
2022-10-02T03:56:11.947Z,11.13
2022-10-02T03:58:47.200Z,11.09
2022-10-02T04:01:33.981Z,11.08
2022-10-02T04:04:06.228Z,11.23
2022-10-02T04:06:46.040Z,11.11
2022-10-02T04:09:20.534Z,11.12
2022-10-02T04:12:05.145Z,11.12
2022-10-02T04:14:44.537Z,10.97
2022-10-02T04:17:20.954Z,11.09
2022-10-02T04:19:55.384Z,11.07
2022-10-02T04:22:34.663Z,11.10
2022-10-02T04:25:12.233Z,11.10
2022-10-02T04:27:50.775Z,10.98
2022-10-02T04:30:21.929Z,10.85
2022-10-02T04:33:00.020Z,10.71
2022-10-02T04:35:35.101Z,10.83
2022-10-02T04:38:23.268Z,10.84
2022-10-02T04:41:05.917Z,10.87
2022-10-02T04:43:53.904Z,10.84
2022-10-02T04:46:44.371Z,10.90
2022-10-02T04:49:49.373Z,11.04
2022-10-02T04:52:33.512Z,10.99
2022-10-02T04:55:25.915Z,10.94
2022-10-02T04:58:13.181Z,10.78
2022-10-02T05:00:50.006Z,10.83
2022-10-02T05:03:38.277Z,10.82
2022-10-02T05:06:26.274Z,10.94
2022-10-02T05:09:09.088Z,10.97
2022-10-02T05:12:02.597Z,10.93
2022-10-02T05:14:48.860Z,10.91
2022-10-02T05:17:32.960Z,10.92
2022-10-02T05:20:18.637Z,10.98
2022-10-02T05:23:08.170Z,11.05
2022-10-02T05:25:51.372Z,11.06
2022-10-02T05:28:49.411Z,11.06
2022-10-02T05:31:33.101Z,11.06
2022-10-02T05:34:16.969Z,11.08
2022-10-02T05:37:09.870Z,11.13
2022-10-02T05:39:49.915Z,11.08
2022-10-02T05:42:28.185Z,11.07
2022-10-02T05:45:08.588Z,11.16
2022-10-02T05:47:44.639Z,11.17
2022-10-02T05:50:18.985Z,11.17
2022-10-02T05:52:56.733Z,11.19
2022-10-02T05:55:34.996Z,11.07
2022-10-02T05:58:10.045Z,11.17
2022-10-02T06:00:45.048Z,11.21
2022-10-02T06:03:24.305Z,11.33
2022-10-02T06:06:03.386Z,11.27
2022-10-02T06:08:40.675Z,11.30
2022-10-02T06:11:18.455Z,11.31
2022-10-02T06:13:54.689Z,11.31
2022-10-02T06:16:30.259Z,11.38
2022-10-02T06:19:04.894Z,11.39
2022-10-02T06:21:40.107Z,11.30
2022-10-02T06:24:18.318Z,11.22
2022-10-02T06:26:54.861Z,11.24
2022-10-02T06:29:29.263Z,11.32
2022-10-02T06:32:10.820Z,11.42
2022-10-02T06:34:48.214Z,11.34
2022-10-02T06:37:35.057Z,11.47
2022-10-02T06:40:20.571Z,11.49
2022-10-02T06:43:01.827Z,11.40
2022-10-02T06:45:45.660Z,11.29
2022-10-02T06:48:26.019Z,11.35
2022-10-02T06:51:03.861Z,11.29
2022-10-02T06:53:51.881Z,11.10
2022-10-02T06:56:46.549Z,11.07
2022-10-02T06:59:31.141Z,11.09
2022-10-02T07:02:11.830Z,11.09
2022-10-02T07:05:00.515Z,11.04
2022-10-02T07:07:43.862Z,11.12
2022-10-02T07:10:35.330Z,11.16
2022-10-02T07:13:27.836Z,11.12
2022-10-02T07:16:29.847Z,11.08
2022-10-02T07:19:32.534Z,11.10
2022-10-02T07:22:26.157Z,11.14
2022-10-02T07:25:19.088Z,11.17
2022-10-02T07:27:58.038Z,11.09
2022-10-02T07:30:35.088Z,10.89
2022-10-02T07:33:11.462Z,11.12
2022-10-02T07:35:52.599Z,11.32
2022-10-02T07:38:48.594Z,11.42
2022-10-02T07:41:46.249Z,11.23
2022-10-02T07:44:33.511Z,11.03
2022-10-02T07:47:14.480Z,11.07
2022-10-02T07:49:53.536Z,11.04
2022-10-02T07:52:34.048Z,11.00
2022-10-02T07:55:16.762Z,11.13
2022-10-02T07:57:58.124Z,11.30
2022-10-02T08:00:30.585Z,11.44
2022-10-02T08:03:02.849Z,11.35
2022-10-02T08:05:37.158Z,11.35
2022-10-02T08:08:17.835Z,11.27
2022-10-02T08:10:58.550Z,10.97
2022-10-02T08:13:32.798Z,10.74
2022-10-02T08:16:05.764Z,10.42
2022-10-02T08:18:39.016Z,10.24
2022-10-02T08:21:16.133Z,10.06
2022-10-02T08:23:53.008Z,9.88
2022-10-02T08:26:35.135Z,9.90
2022-10-02T08:29:17.309Z,9.92
2022-10-02T08:31:46.814Z,9.91
2022-10-02T08:34:19.017Z,9.97
2022-10-02T08:37:13.997Z,10.23
2022-10-02T08:40:11.127Z,10.54
2022-10-02T08:43:14.035Z,10.91
2022-10-02T08:46:21.733Z,11.23
2022-10-02T08:49:17.063Z,11.70
2022-10-02T08:52:24.639Z,12.32
2022-10-02T08:55:21.573Z,12.67
2022-10-02T08:58:38.157Z,12.93
2022-10-02T09:01:22.236Z,12.85
2022-10-02T09:04:20.395Z,12.68
2022-10-02T09:07:19.697Z,12.54
2022-10-02T09:10:37.320Z,12.76
2022-10-02T09:13:40.608Z,13.15
2022-10-02T09:16:12.614Z,13.41
2022-10-02T09:18:57.680Z,13.69
2022-10-02T09:21:51.805Z,13.96
2022-10-02T09:25:03.913Z,14.37
2022-10-02T09:27:49.611Z,14.74
2022-10-02T09:30:28.815Z,14.65
2022-10-02T09:33:27.439Z,14.64
2022-10-02T09:36:27.276Z,14.55
2022-10-02T09:39:24.588Z,14.64
2022-10-02T09:42:20.596Z,14.54
2022-10-02T09:45:28.833Z,14.56
2022-10-02T09:48:45.278Z,14.60
2022-10-02T09:51:47.144Z,14.76
2022-10-02T09:55:00.470Z,14.76
2022-10-02T09:58:13.724Z,14.46
2022-10-02T10:01:15.004Z,14.43
2022-10-02T10:04:12.481Z,14.45
2022-10-02T10:07:26.712Z,14.08
2022-10-02T10:10:29.294Z,13.93
2022-10-02T10:13:31.890Z,13.98
2022-10-02T10:16:33.048Z,14.10
2022-10-02T10:19:32.515Z,14.23
2022-10-02T10:22:23.450Z,14.19
2022-10-02T10:25:22.410Z,14.26
2022-10-02T10:28:27.164Z,14.48
2022-10-02T10:31:34.493Z,14.53
2022-10-02T10:34:37.330Z,14.57
2022-10-02T10:37:56.872Z,14.58
2022-10-02T10:40:44.492Z,14.72
2022-10-02T10:43:43.122Z,14.64
2022-10-02T10:46:30.756Z,14.47
2022-10-02T10:49:21.014Z,14.44
2022-10-02T10:52:03.454Z,14.37
2022-10-02T10:54:54.919Z,14.65
2022-10-02T10:57:42.457Z,14.98
2022-10-02T11:00:20.071Z,15.06
2022-10-02T11:03:01.430Z,15.08
2022-10-02T11:06:18.589Z,15.15
2022-10-02T11:09:16.017Z,14.88
2022-10-02T11:12:00.262Z,14.78
2022-10-02T11:14:43.435Z,14.95
2022-10-02T11:17:34.283Z,14.89
2022-10-02T11:20:22.589Z,14.77
2022-10-02T11:23:15.505Z,14.42
2022-10-02T11:26:23.438Z,14.48
2022-10-02T11:29:22.387Z,14.43
2022-10-02T11:32:27.542Z,14.30
2022-10-02T11:35:22.951Z,14.30
2022-10-02T11:38:30.132Z,14.24
2022-10-02T11:41:46.459Z,14.13
2022-10-02T11:44:29.890Z,13.89
2022-10-02T11:47:31.306Z,13.75
2022-10-02T11:50:28.745Z,13.55
2022-10-02T11:53:22.784Z,13.49
2022-10-02T11:56:04.132Z,13.56
2022-10-02T11:58:51.685Z,13.92
2022-10-02T12:01:38.490Z,14.27
2022-10-02T12:04:22.663Z,14.53
2022-10-02T12:07:17.868Z,14.63
2022-10-02T12:10:07.140Z,14.51
2022-10-02T12:12:51.095Z,14.37
2022-10-02T12:15:37.880Z,14.18
2022-10-02T12:18:22.999Z,14.08
2022-10-02T12:21:19.044Z,13.94
2022-10-02T12:24:10.364Z,13.63
2022-10-02T12:27:09.288Z,13.52
2022-10-02T12:30:03.204Z,13.40
2022-10-02T12:32:55.039Z,13.34
2022-10-02T12:35:37.649Z,13.26
2022-10-02T12:38:24.079Z,13.17
2022-10-02T12:41:08.205Z,13.02
2022-10-02T12:44:09.034Z,12.81
2022-10-02T12:47:18.641Z,12.73
2022-10-02T12:57:02.395Z,11.89
2022-10-02T12:59:49.103Z,11.84
2022-10-02T13:03:00.727Z,11.95
2022-10-02T13:05:52.857Z,11.98
2022-10-02T13:08:41.225Z,11.95
2022-10-02T13:11:25.182Z,11.99
2022-10-02T13:14:10.800Z,12.03
2022-10-02T13:17:09.011Z,12.20
2022-10-02T13:19:49.197Z,12.32
2022-10-02T13:22:25.990Z,12.48
2022-10-02T13:25:04.447Z,12.65
2022-10-02T13:27:49.279Z,12.75
2022-10-02T13:30:26.060Z,12.98
2022-10-02T13:33:28.843Z,13.21
2022-10-02T13:36:13.683Z,13.36
2022-10-02T13:39:15.471Z,13.39
2022-10-02T13:41:59.600Z,13.29
2022-10-02T13:44:45.466Z,13.18
2022-10-02T13:47:33.343Z,13.04
2022-10-02T13:50:46.072Z,13.01
2022-10-02T13:53:38.405Z,12.78
2022-10-02T13:56:15.803Z,12.56
2022-10-02T13:59:10.263Z,12.46
2022-10-02T14:01:54.174Z,12.36
2022-10-02T14:04:39.454Z,12.35
2022-10-02T14:07:23.146Z,12.28
2022-10-02T14:10:04.640Z,12.29
2022-10-02T14:12:46.643Z,12.28
2022-10-02T14:15:26.761Z,12.36
2022-10-02T14:18:28.570Z,12.30
2022-10-02T14:21:09.781Z,12.19
2022-10-02T14:23:53.447Z,12.23
2022-10-02T14:26:41.896Z,12.17
2022-10-02T14:29:32.334Z,12.11
2022-10-02T14:32:22.866Z,12.06
2022-10-02T14:35:11.171Z,12.08
2022-10-02T14:41:00.935Z,12.03
2022-10-02T14:43:54.148Z,11.92
2022-10-02T14:46:40.618Z,12.01
2022-10-02T14:49:36.526Z,12.07
2022-10-02T14:52:39.010Z,12.03
2022-10-02T14:55:30.704Z,11.99
2022-10-02T14:58:22.141Z,11.82
2022-10-02T15:01:10.203Z,11.94
2022-10-02T15:03:56.528Z,11.93
2022-10-02T15:06:36.627Z,11.96
2022-10-02T15:09:15.236Z,11.97
2022-10-02T15:12:13.489Z,11.98
2022-10-02T15:14:56.578Z,12.00
2022-10-02T15:17:54.111Z,12.03
2022-10-02T15:20:40.025Z,12.05
2022-10-02T15:23:41.317Z,11.97
2022-10-02T15:26:38.448Z,11.96
2022-10-02T15:29:22.612Z,11.92
2022-10-02T15:32:28.310Z,11.94
2022-10-02T15:35:12.639Z,11.80
2022-10-02T15:37:49.938Z,11.81
2022-10-02T15:40:36.794Z,11.83
2022-10-02T15:43:28.412Z,11.79
2022-10-02T15:46:06.480Z,11.74
2022-10-02T15:48:55.222Z,11.74
2022-10-02T15:51:40.134Z,11.72
2022-10-02T15:54:45.737Z,11.70
2022-10-02T15:57:35.952Z,11.67
2022-10-02T16:00:23.561Z,11.69
2022-10-02T16:03:03.703Z,11.60
2022-10-02T16:06:05.185Z,11.61
2022-10-02T16:09:03.347Z,11.61
2022-10-02T16:11:54.359Z,11.56
2022-10-02T16:14:36.169Z,11.60
2022-10-02T16:17:25.763Z,11.65
2022-10-02T16:20:12.075Z,11.59
2022-10-02T16:22:57.431Z,11.62
2022-10-02T16:25:40.224Z,11.50
2022-10-02T16:28:22.746Z,11.56
2022-10-02T16:31:10.667Z,11.59
2022-10-02T16:33:50.732Z,11.57
2022-10-02T16:36:31.462Z,11.61
2022-10-02T16:39:31.316Z,11.61
2022-10-02T16:42:12.418Z,11.60
2022-10-02T16:45:01.125Z,11.53
2022-10-02T16:47:38.358Z,11.57
2022-10-02T16:50:21.679Z,11.53
2022-10-02T16:52:59.056Z,11.50
2022-10-02T16:55:35.426Z,11.58
2022-10-02T16:58:24.109Z,11.55
2022-10-02T17:00:58.880Z,11.50
2022-10-02T17:03:35.357Z,11.40
2022-10-02T17:06:11.700Z,11.49
2022-10-02T17:08:46.201Z,11.52
2022-10-02T17:11:22.478Z,11.46
2022-10-02T17:14:14.311Z,11.50
2022-10-02T17:16:55.061Z,11.47
2022-10-02T17:19:30.471Z,11.49
2022-10-02T17:22:04.558Z,11.47
2022-10-02T17:24:41.967Z,11.42
2022-10-02T17:27:18.737Z,11.46
2022-10-02T17:30:01.390Z,11.41
2022-10-02T17:32:39.224Z,11.45
2022-10-02T17:35:17.852Z,11.45
2022-10-02T17:38:12.362Z,11.48
2022-10-02T17:40:58.821Z,11.48
2022-10-02T17:43:36.863Z,11.41
2022-10-02T17:46:31.085Z,11.50
2022-10-02T17:49:05.756Z,11.46
2022-10-02T17:51:52.793Z,11.31
2022-10-02T17:55:00.236Z,11.27
2022-10-02T17:57:46.220Z,11.09
2022-10-02T18:00:22.441Z,10.98
2022-10-02T18:03:11.757Z,10.90
2022-10-02T18:05:59.396Z,10.83
2022-10-02T18:09:01.484Z,10.79
2022-10-02T18:11:38.878Z,10.80
2022-10-02T18:14:20.193Z,10.63
2022-10-02T18:17:10.955Z,10.64
2022-10-02T18:19:56.760Z,10.48
2022-10-02T18:22:46.097Z,10.52
2022-10-02T18:25:29.866Z,10.47
2022-10-02T18:28:14.610Z,10.49
2022-10-02T18:30:53.815Z,10.49
2022-10-02T18:34:06.324Z,10.59
2022-10-02T18:36:51.361Z,10.57
2022-10-02T18:39:32.521Z,10.51
2022-10-02T18:42:25.806Z,10.59
2022-10-02T18:45:04.651Z,10.56
2022-10-02T18:47:51.063Z,10.56
2022-10-02T18:50:40.021Z,10.61
2022-10-02T18:53:41.963Z,10.56
2022-10-02T18:56:21.891Z,10.59
2022-10-02T18:59:06.224Z,10.65
2022-10-02T19:01:53.502Z,10.69
2022-10-02T19:04:53.829Z,10.70
2022-10-02T19:07:29.003Z,10.69
2022-10-02T19:10:30.736Z,10.66
2022-10-02T19:13:04.381Z,10.74
2022-10-02T19:18:20.029Z,10.72
2022-10-02T19:21:00.174Z,10.73
2022-10-02T19:23:37.651Z,10.78
2022-10-02T19:26:17.639Z,10.73
2022-10-02T19:28:54.839Z,10.69
2022-10-02T19:31:29.982Z,10.51
2022-10-02T19:34:03.209Z,10.34
2022-10-02T19:36:41.770Z,10.23
2022-10-02T19:39:22.151Z,10.21
2022-10-02T19:42:04.388Z,10.13
2022-10-02T19:44:40.359Z,10.11
2022-10-02T19:47:16.611Z,10.22
2022-10-02T19:49:50.007Z,10.25
2022-10-02T19:52:44.424Z,10.26
2022-10-02T19:55:24.609Z,10.21
2022-10-02T19:57:58.434Z,10.20
2022-10-02T20:00:36.539Z,10.24
2022-10-02T20:03:19.424Z,10.19
2022-10-02T20:05:52.207Z,10.30
2022-10-02T20:08:28.526Z,10.32
2022-10-02T20:11:07.104Z,10.35
2022-10-02T20:13:45.831Z,10.40
2022-10-02T20:16:39.299Z,10.39
2022-10-02T20:19:24.942Z,10.46
2022-10-02T20:21:57.121Z,10.44
2022-10-02T20:24:37.316Z,10.50
2022-10-02T20:27:12.801Z,10.49
2022-10-02T20:29:51.295Z,10.51
2022-10-02T20:32:26.837Z,10.53
2022-10-02T20:35:01.476Z,10.57
2022-10-02T20:37:36.276Z,10.63
2022-10-02T20:40:11.226Z,10.60
2022-10-02T20:42:48.185Z,10.80
2022-10-02T20:45:31.987Z,10.91
2022-10-02T20:49:03.468Z,10.90
2022-10-02T20:52:08.072Z,10.89
2022-10-02T20:54:46.072Z,10.90
2022-10-02T20:58:00.132Z,10.90
2022-10-02T21:00:35.099Z,10.97
2022-10-02T21:03:24.208Z,11.01
2022-10-02T21:06:28.451Z,11.02
2022-10-02T21:09:28.406Z,11.03
2022-10-02T21:12:35.474Z,11.05
2022-10-02T21:15:30.883Z,11.09
2022-10-02T21:18:35.059Z,11.14
2022-10-02T21:21:42.868Z,11.13
2022-10-02T21:24:45.605Z,11.22
2022-10-02T21:27:41.865Z,11.26
2022-10-02T21:30:16.405Z,11.14
2022-10-02T21:33:10.975Z,11.27
2022-10-02T21:35:53.797Z,11.30
2022-10-02T21:39:01.668Z,11.31
2022-10-02T21:41:54.693Z,11.28
2022-10-02T21:45:03.459Z,11.40
2022-10-02T21:48:04.201Z,11.39
2022-10-02T21:51:19.051Z,11.40
2022-10-02T21:54:16.358Z,11.42
2022-10-02T21:57:15.771Z,11.44
2022-10-02T22:00:13.957Z,11.46
2022-10-02T22:03:15.409Z,11.48
2022-10-02T22:06:07.935Z,11.49
2022-10-02T22:08:54.725Z,11.49
2022-10-02T22:11:36.110Z,11.52
2022-10-02T22:14:12.544Z,11.53
2022-10-02T22:16:57.117Z,11.53
2022-10-02T22:19:50.333Z,11.61
2022-10-02T22:22:29.304Z,11.53
2022-10-02T22:25:23.596Z,11.63
2022-10-02T22:28:18.815Z,11.67
2022-10-02T22:31:10.946Z,11.70
2022-10-02T22:33:53.763Z,11.85
2022-10-02T22:36:55.061Z,11.76
2022-10-02T22:39:30.997Z,11.76
2022-10-02T22:42:05.520Z,11.79
2022-10-02T22:44:43.685Z,11.82
2022-10-02T22:47:23.174Z,11.88
2022-10-02T22:49:56.269Z,11.93
2022-10-02T22:52:29.813Z,11.96
2022-10-02T22:55:12.352Z,11.96
2022-10-02T22:57:46.430Z,12.04
2022-10-02T23:00:20.951Z,11.97
2022-10-02T23:02:57.549Z,12.02
2022-10-02T23:05:34.977Z,12.11
2022-10-02T23:08:16.831Z,12.14
2022-10-02T23:10:47.398Z,12.25
2022-10-02T23:13:23.782Z,12.25
2022-10-02T23:15:59.789Z,12.32
2022-10-02T23:18:42.522Z,12.35
2022-10-02T23:21:26.667Z,12.39
2022-10-02T23:24:17.481Z,12.44
2022-10-02T23:26:52.224Z,12.48
2022-10-02T23:29:32.572Z,12.50
2022-10-02T23:32:10.912Z,12.57
2022-10-02T23:34:47.501Z,12.55
2022-10-02T23:37:22.144Z,12.64
2022-10-02T23:39:56.252Z,12.65
2022-10-02T23:42:31.489Z,12.68
2022-10-02T23:45:08.223Z,12.79
2022-10-02T23:47:50.648Z,12.77
2022-10-02T23:53:37.221Z,12.93
2022-10-02T23:56:22.281Z,12.96
2022-10-02T23:59:07.854Z,12.99
